Time;durP1;ratioP1;P1;durP2;ratioP2;P2;SDS_P1;SDS_P2;PMS_P1;PMS_P2;Temp;Humidity;BMP_temperature;BMP_pressure;BME280_temperature;BME280_humidity;BME280_pressure;Samples;Min_cycle;Max_cycle;Signal;HPM_P1;HPM_P2
2022/09/08 00:01:26;;;;;;;;;;;20.30;62.80;;;;;;5008550;28;88521;-46
2022/09/08 00:03:51;;;;;;;;;;;20.30;62.70;;;;;;5006460;28;87463;-46
2022/09/08 00:06:18;;;;;;;;;;;20.30;62.80;;;;;;5005838;28;88080;-46
2022/09/08 00:08:45;;;;;;;;;;;20.20;62.80;;;;;;5005204;28;87092;-46
2022/09/08 00:11:11;;;;;;;;;;;20.20;62.80;;;;;;5005207;28;87952;-48
2022/09/08 00:13:39;;;;;;;;;;;20.20;62.90;;;;;;5005017;28;89264;-47
2022/09/08 00:16:06;;;;;;;;;;;20.20;62.80;;;;;;5005545;28;87151;-46
2022/09/08 00:18:31;;;;;;;;;;;20.20;62.90;;;;;;5005833;28;87485;-46
2022/09/08 00:20:57;;;;;;;;;;;20.20;62.90;;;;;;5005158;28;87721;-47
2022/09/08 00:23:22;;;;;;;;;;;20.20;62.90;;;;;;5008468;28;87598;-46
2022/09/08 00:25:48;;;;;;;;;;;20.20;63.50;;;;;;5005595;28;88059;-46
2022/09/08 00:28:13;;;;;;;;;;;20.10;62.90;;;;;;5006111;28;86364;-47
2022/09/08 00:30:39;;;;;;;;;;;20.10;62.90;;;;;;5005435;28;87022;-47
2022/09/08 00:33:05;;;;;;;;;;;20.10;62.90;;;;;;5005120;28;87974;-46
2022/09/08 00:35:30;;;;;;;;;;;20.10;62.90;;;;;;5004951;28;88124;-47
2022/09/08 00:37:56;;;;;;;;;;;20.10;63.00;;;;;;5005219;28;88221;-47
2022/09/08 00:40:22;;;;;;;;;;;20.10;63.00;;;;;;5004868;28;88160;-46
2022/09/08 00:42:57;;;;;;;;;;;20.10;63.00;;;;;;5005384;28;87091;-46
2022/09/08 00:45:24;;;;;;;;;;;20.10;63.10;;;;;;5007881;28;87294;-46
2022/09/08 00:48:01;;;;;;;;;;;20.10;63.00;;;;;;5005236;28;87096;-46
2022/09/08 00:50:28;;;;;;;;;;;20.00;63.00;;;;;;5005235;28;87375;-47
2022/09/08 00:52:59;;;;;;;;;;;20.00;62.90;;;;;;5004892;28;86921;-47
2022/09/08 00:55:25;;;;;;;;;;;20.00;63.00;;;;;;5004996;28;87072;-46
2022/09/08 00:57:50;;;;;;;;;;;20.00;63.00;;;;;;5005099;28;87359;-46
2022/09/08 01:00:16;;;;;;;;;;;20.00;63.00;;;;;;5004066;28;89311;-47
2022/09/08 01:02:44;;;;;;;;;;;20.00;62.90;;;;;;5005025;28;86986;-46
2022/09/08 01:05:11;;;;;;;;;;;20.00;63.00;;;;;;5006068;28;90727;-46
2022/09/08 01:13:23;;;;;;;;;;;19.90;63.00;;;;;;5004470;28;87621;-47
2022/09/08 01:15:49;;;;;;;;;;;19.90;63.10;;;;;;5004657;28;87034;-46
2022/09/08 01:18:14;;;;;;;;;;;19.90;63.00;;;;;;5005158;28;87367;-47
2022/09/08 01:20:59;;;;;;;;;;;19.90;63.00;;;;;;5004329;28;88168;-46
2022/09/08 01:23:34;;;;;;;;;;;19.90;63.10;;;;;;5004352;28;87173;-46
2022/09/08 01:26:32;;;;;;;;;;;19.90;63.00;;;;;;5003690;28;88947;-46
2022/09/08 01:28:58;;;;;;;;;;;19.90;63.10;;;;;;4994243;28;88223;-47
2022/09/08 01:31:24;;;;;;;;;;;19.80;63.10;;;;;;5004705;28;87342;-47
2022/09/08 01:33:50;;;;;;;;;;;19.80;63.10;;;;;;5004139;28;88115;-46
2022/09/08 01:36:17;;;;;;;;;;;19.80;63.10;;;;;;5004455;28;87116;-47
2022/09/08 01:38:42;;;;;;;;;;;19.80;63.10;;;;;;5004007;28;89010;-47
2022/09/08 01:41:08;;;;;;;;;;;19.80;63.10;;;;;;5004227;28;87988;-47
2022/09/08 01:43:34;;;;;;;;;;;19.70;63.10;;;;;;5004940;28;86365;-47
2022/09/08 01:45:59;;;;;;;;;;;19.80;63.10;;;;;;5004658;28;86976;-46
2022/09/08 01:48:25;;;;;;;;;;;19.70;63.00;;;;;;5003806;28;88091;-46
2022/09/08 01:50:51;;;;;;;;;;;19.80;63.00;;;;;;5006611;28;88011;-47
2022/09/08 01:53:17;;;;;;;;;;;19.70;63.10;;;;;;5003699;28;88451;-46
2022/09/08 01:55:46;;;;;;;;;;;19.70;63.00;;;;;;5004234;28;87094;-47
2022/09/08 01:58:11;;;;;;;;;;;19.70;63.10;;;;;;5004183;28;87422;-46
2022/09/08 02:00:39;;;;;;;;;;;19.60;63.00;;;;;;5003936;28;87857;-46
2022/09/08 02:03:05;;;;;;;;;;;19.70;63.10;;;;;;5004016;28;87191;-46
2022/09/08 02:05:30;;;;;;;;;;;19.60;63.00;;;;;;5004114;28;87344;-46
2022/09/08 02:07:56;;;;;;;;;;;19.60;63.10;;;;;;5003710;28;87272;-46
2022/09/08 02:10:22;;;;;;;;;;;19.60;63.00;;;;;;5004083;28;87107;-47
2022/09/08 02:12:47;;;;;;;;;;;19.60;63.00;;;;;;5006179;28;87346;-46
2022/09/08 02:15:13;;;;;;;;;;;19.60;63.10;;;;;;5003141;28;88049;-46
2022/09/08 02:17:38;;;;;;;;;;;19.60;63.10;;;;;;5003950;28;88376;-47
2022/09/08 02:20:04;;;;;;;;;;;19.60;63.10;;;;;;5003504;28;87895;-46
2022/09/08 02:22:32;;;;;;;;;;;19.60;63.20;;;;;;5003459;28;86977;-46
2022/09/08 02:24:58;;;;;;;;;;;19.60;63.10;;;;;;5003651;28;87045;-47
2022/09/08 02:27:23;;;;;;;;;;;19.50;63.10;;;;;;5003211;28;88596;-47
2022/09/08 02:29:49;;;;;;;;;;;19.50;63.00;;;;;;5003712;28;87170;-47
2022/09/08 02:32:15;;;;;;;;;;;19.50;63.00;;;;;;5004078;28;87453;-46
2022/09/08 02:34:40;;;;;;;;;;;19.50;63.10;;;;;;5006244;28;87906;-47
2022/09/08 02:37:06;;;;;;;;;;;19.50;63.10;;;;;;5003541;28;87863;-47
2022/09/08 02:39:31;;;;;;;;;;;19.50;63.10;;;;;;5002338;28;88938;-46
2022/09/08 02:41:57;;;;;;;;;;;19.50;63.10;;;;;;5003384;28;87073;-46
2022/09/08 02:44:23;;;;;;;;;;;19.50;63.10;;;;;;5003564;28;87010;-46
2022/09/08 02:46:48;;;;;;;;;;;19.50;63.20;;;;;;5001597;28;90915;-46
2022/09/08 02:49:14;;;;;;;;;;;19.40;63.10;;;;;;5003124;28;87109;-47
2022/09/08 02:51:40;;;;;;;;;;;19.40;63.10;;;;;;5003588;28;86828;-46
2022/09/08 02:54:06;;;;;;;;;;;19.40;63.10;;;;;;5002719;28;88086;-46
2022/09/08 02:56:31;;;;;;;;;;;19.40;63.10;;;;;;5006369;28;86340;-47
2022/09/08 02:58:57;;;;;;;;;;;19.40;63.20;;;;;;5002930;28;88129;-47
2022/09/08 03:01:22;;;;;;;;;;;19.30;63.20;;;;;;5003595;28;87406;-46
2022/09/08 03:03:48;;;;;;;;;;;19.30;63.10;;;;;;5002619;28;87992;-46
2022/09/08 03:06:14;;;;;;;;;;;19.30;63.10;;;;;;5002796;28;87452;-46
2022/09/08 03:08:40;;;;;;;;;;;19.30;63.10;;;;;;5002566;28;87091;-47
2022/09/08 03:11:05;;;;;;;;;;;19.30;63.10;;;;;;5003093;28;87169;-47
2022/09/08 03:13:31;;;;;;;;;;;19.30;63.10;;;;;;5002692;28;88010;-46
2022/09/08 03:15:57;;;;;;;;;;;19.30;63.20;;;;;;5006039;28;87052;-46
2022/09/08 03:18:23;;;;;;;;;;;19.30;63.20;;;;;;5002226;28;89527;-47
2022/09/08 03:20:57;;;;;;;;;;;19.30;63.10;;;;;;5003499;28;86366;-46
2022/09/08 03:23:24;;;;;;;;;;;19.30;63.20;;;;;;5002966;28;87019;-48
2022/09/08 03:25:50;;;;;;;;;;;19.20;63.10;;;;;;5001125;28;89366;-46
2022/09/08 03:28:18;;;;;;;;;;;19.20;63.10;;;;;;5001943;28;88261;-46
2022/09/08 03:30:44;;;;;;;;;;;19.20;63.10;;;;;;5002784;28;88434;-46
2022/09/08 03:33:09;;;;;;;;;;;19.20;63.10;;;;;;5002257;28;87101;-47
2022/09/08 03:35:35;;;;;;;;;;;19.20;63.10;;;;;;5002856;28;87103;-46
2022/09/08 03:38:00;;;;;;;;;;;19.20;63.10;;;;;;5005204;28;87450;-47
2022/09/08 03:40:26;;;;;;;;;;;19.20;63.10;;;;;;5002716;28;87272;-46
2022/09/08 03:42:52;;;;;;;;;;;19.20;63.10;;;;;;5002554;28;87784;-47
2022/09/08 03:45:18;;;;;;;;;;;19.20;63.10;;;;;;5002764;28;87238;-46
2022/09/08 03:47:44;;;;;;;;;;;19.20;63.10;;;;;;5002566;28;86912;-46
2022/09/08 03:50:14;;;;;;;;;;;19.20;63.10;;;;;;5002315;28;87429;-46
2022/09/08 03:52:39;;;;;;;;;;;19.10;63.10;;;;;;5001105;28;89022;-46
2022/09/08 03:55:05;;;;;;;;;;;19.10;63.10;;;;;;5002359;28;87112;-46
2022/09/08 03:57:31;;;;;;;;;;;19.10;63.10;;;;;;5002352;28;87000;-47
2022/09/08 03:59:57;;;;;;;;;;;19.10;63.10;;;;;;5005018;28;87883;-46
2022/09/08 04:02:23;;;;;;;;;;;19.10;63.10;;;;;;5002444;28;87377;-47
2022/09/08 04:04:50;;;;;;;;;;;19.00;63.00;;;;;;5002039;28;91004;-46
2022/09/08 04:07:16;;;;;;;;;;;19.00;63.10;;;;;;5001889;28;87590;-47
2022/09/08 04:09:42;;;;;;;;;;;19.00;63.00;;;;;;5002770;28;87344;-47
2022/09/08 04:12:08;;;;;;;;;;;19.00;63.10;;;;;;5001636;28;89358;-46
2022/09/08 04:14:34;;;;;;;;;;;19.00;63.10;;;;;;5001917;28;87174;-46
2022/09/08 04:16:59;;;;;;;;;;;19.00;63.10;;;;;;5001602;28;87919;-46
2022/09/08 04:19:25;;;;;;;;;;;19.00;63.10;;;;;;5001630;28;88633;-47
2022/09/08 04:21:50;;;;;;;;;;;19.00;63.10;;;;;;5004953;28;86970;-47
2022/09/08 04:24:18;;;;;;;;;;;19.00;63.20;;;;;;5001786;28;88242;-46
2022/09/08 04:26:44;;;;;;;;;;;19.00;63.20;;;;;;5001937;28;87194;-46
2022/09/08 04:29:09;;;;;;;;;;;18.90;63.20;;;;;;5002112;28;87310;-46
2022/09/08 04:31:35;;;;;;;;;;;18.90;63.10;;;;;;5001578;28;88044;-46
2022/09/08 04:34:02;;;;;;;;;;;18.90;63.30;;;;;;5002309;28;86287;-46
2022/09/08 04:36:27;;;;;;;;;;;18.90;63.30;;;;;;5002682;28;87025;-46
2022/09/08 04:38:57;;;;;;;;;;;18.80;63.20;;;;;;5004698;28;89587;-46
2022/09/08 04:41:23;;;;;;;;;;;18.90;63.30;;;;;;5004558;28;88055;-46
2022/09/08 04:43:49;;;;;;;;;;;18.80;63.20;;;;;;5007626;28;88692;-46
2022/09/08 04:46:16;;;;;;;;;;;18.90;63.30;;;;;;5005550;28;87165;-46
2022/09/08 04:48:42;;;;;;;;;;;18.80;63.20;;;;;;5004960;28;86989;-46
2022/09/08 04:51:09;;;;;;;;;;;18.80;63.20;;;;;;5005054;28;88010;-46
2022/09/08 04:53:36;;;;;;;;;;;18.80;63.30;;;;;;5004973;28;87121;-46
2022/09/08 04:56:02;;;;;;;;;;;18.80;63.30;;;;;;5005123;28;87506;-46
2022/09/08 04:58:31;;;;;;;;;;;18.80;63.40;;;;;;5005018;28;86554;-46
2022/09/08 05:01:10;;;;;;;;;;;18.80;63.30;;;;;;5005317;28;87049;-46
2022/09/08 05:03:36;;;;;;;;;;;18.80;63.30;;;;;;5007336;28;87924;-46
2022/09/08 05:06:03;;;;;;;;;;;18.80;63.30;;;;;;5004132;28;87984;-46
2022/09/08 05:08:28;;;;;;;;;;;18.70;63.40;;;;;;5004064;28;89287;-46
2022/09/08 05:10:54;;;;;;;;;;;18.70;63.40;;;;;;5004545;28;88050;-46
2022/09/08 05:13:19;;;;;;;;;;;18.70;63.30;;;;;;5005103;28;87105;-46
2022/09/08 05:15:45;;;;;;;;;;;18.70;63.30;;;;;;5004766;28;87426;-46
2022/09/08 05:18:10;;;;;;;;;;;18.70;63.30;;;;;;5003892;28;89061;-47
2022/09/08 05:20:36;;;;;;;;;;;18.70;63.30;;;;;;5004912;28;86783;-46
2022/09/08 05:23:02;;;;;;;;;;;18.70;63.30;;;;;;5005344;28;87231;-46
2022/09/08 05:25:27;;;;;;;;;;;18.70;63.30;;;;;;5007246;28;89869;-46
2022/09/08 05:27:53;;;;;;;;;;;18.70;63.50;;;;;;5004630;28;87481;-46
2022/09/08 05:30:18;;;;;;;;;;;18.70;63.40;;;;;;5003698;28;88924;-47
2022/09/08 05:32:44;;;;;;;;;;;18.70;63.40;;;;;;5004530;28;87231;-46
2022/09/08 05:35:10;;;;;;;;;;;18.80;63.40;;;;;;5004408;28;87317;-47
2022/09/08 05:37:35;;;;;;;;;;;18.70;63.30;;;;;;5004123;28;88005;-46
2022/09/08 05:40:01;;;;;;;;;;;18.70;63.30;;;;;;5004510;28;87074;-47
2022/09/08 05:42:26;;;;;;;;;;;18.70;63.30;;;;;;5004517;28;87336;-47
2022/09/08 05:44:53;;;;;;;;;;;18.70;63.30;;;;;;5004251;28;88390;-47
2022/09/08 05:47:19;;;;;;;;;;;18.70;63.30;;;;;;5007487;28;86351;-47
2022/09/08 05:49:45;;;;;;;;;;;18.70;63.30;;;;;;5002731;28;87723;-46
2022/09/08 05:52:11;;;;;;;;;;;18.70;63.40;;;;;;5004173;28;87109;-47
2022/09/08 05:54:37;;;;;;;;;;;18.70;63.50;;;;;;5003665;28;87910;-47
2022/09/08 05:57:03;;;;;;;;;;;18.70;63.40;;;;;;5003924;28;87988;-47
2022/09/08 05:59:29;;;;;;;;;;;18.70;63.50;;;;;;5004424;28;88173;-46
2022/09/08 06:01:54;;;;;;;;;;;18.70;63.50;;;;;;5004159;28;87300;-47
2022/09/08 06:04:20;;;;;;;;;;;18.70;63.50;;;;;;5003638;28;88188;-47
2022/09/08 06:06:46;;;;;;;;;;;18.70;63.40;;;;;;5004001;28;86975;-47
2022/09/08 06:09:12;;;;;;;;;;;18.70;63.50;;;;;;5005858;28;88611;-47
2022/09/08 06:11:38;;;;;;;;;;;18.70;63.50;;;;;;5004403;28;86335;-46
2022/09/08 06:14:05;;;;;;;;;;;18.70;63.60;;;;;;5004004;28;86988;-46
2022/09/08 06:16:31;;;;;;;;;;;18.70;63.60;;;;;;5003313;28;89514;-48
2022/09/08 06:18:58;;;;;;;;;;;18.70;63.70;;;;;;5003035;28;87995;-47
2022/09/08 06:21:25;;;;;;;;;;;18.70;63.80;;;;;;5003820;28;88371;-46
2022/09/08 06:23:51;;;;;;;;;;;18.70;63.70;;;;;;5003450;28;86889;-46
2022/09/08 06:26:26;;;;;;;;;;;18.70;63.70;;;;;;5003727;28;87130;-46
2022/09/08 06:28:55;;;;;;;;;;;18.70;63.80;;;;;;5003822;28;87045;-46
2022/09/08 06:31:46;;;;;;;;;;;18.70;63.80;;;;;;5005957;28;88063;-46
2022/09/08 06:34:15;;;;;;;;;;;18.70;63.70;;;;;;5002137;28;87178;-47
2022/09/08 06:36:47;;;;;;;;;;;18.70;63.70;;;;;;5003440;28;88801;-47
2022/09/08 06:39:14;;;;;;;;;;;18.70;63.80;;;;;;5003305;28;87061;-46
2022/09/08 06:41:56;;;;;;;;;;;18.70;63.90;;;;;;5003388;28;87311;-46
2022/09/08 06:44:26;;;;;;;;;;;18.70;63.80;;;;;;5002388;28;88774;-46
2022/09/08 06:46:52;;;;;;;;;;;18.70;63.80;;;;;;5003200;28;87067;-47
2022/09/08 06:49:17;;;;;;;;;;;18.70;63.90;;;;;;5003212;28;87293;-46
2022/09/08 06:52:02;;;;;;;;;;;18.70;63.80;;;;;;5002712;28;89117;-47
2022/09/08 06:54:36;;;;;;;;;;;18.70;63.80;;;;;;5005973;28;86983;-47
2022/09/08 06:57:11;;;;;;;;;;;18.70;63.90;;;;;;5002940;28;88085;-47
2022/09/08 06:59:44;;;;;;;;;;;18.70;63.90;;;;;;5003122;28;86981;-46
2022/09/08 07:02:18;;;;;;;;;;;18.70;63.90;;;;;;5003682;28;87462;-46
2022/09/08 07:04:56;;;;;;;;;;;18.80;63.80;;;;;;5002665;28;88001;-46
2022/09/08 07:07:34;;;;;;;;;;;18.80;63.80;;;;;;5002869;28;87128;-46
2022/09/08 07:10:18;;;;;;;;;;;18.80;63.80;;;;;;5002689;28;87783;-47
2022/09/08 07:12:43;;;;;;;;;;;18.80;64.00;;;;;;5002854;28;88051;-46
2022/09/08 07:15:15;;;;;;;;;;;18.80;63.90;;;;;;5005911;28;87021;-47
2022/09/08 07:17:59;;;;;;;;;;;18.80;63.90;;;;;;5002405;28;87523;-46
2022/09/08 07:20:26;;;;;;;;;;;18.80;64.00;;;;;;5003245;28;86801;-46
2022/09/08 07:22:55;;;;;;;;;;;18.70;64.00;;;;;;5002974;28;87314;-46
2022/09/08 07:25:35;;;;;;;;;;;18.70;64.00;;;;;;5002411;28;87966;-47
2022/09/08 07:28:12;;;;;;;;;;;18.80;64.00;;;;;;5002648;28;86431;-46
2022/09/08 07:30:38;;;;;;;;;;;18.80;64.10;;;;;;5002771;28;88080;-46
2022/09/08 07:33:17;;;;;;;;;;;18.80;64.00;;;;;;5002081;28;87994;-46
2022/09/08 07:35:52;;;;;;;;;;;18.80;64.10;;;;;;5001332;28;88066;-47
2022/09/08 07:38:36;;;;;;;;;;;18.80;64.10;;;;;;5004626;28;89924;-47
2022/09/08 07:41:03;;;;;;;;;;;18.80;64.20;;;;;;5001916;28;87118;-47
2022/09/08 07:43:29;;;;;;;;;;;18.70;64.10;;;;;;5002129;28;87304;-47
2022/09/08 07:45:58;;;;;;;;;;;18.80;64.20;;;;;;5001546;28;89375;-47
2022/09/08 07:48:31;;;;;;;;;;;18.80;64.20;;;;;;5002185;28;87045;-46
2022/09/08 07:51:01;;;;;;;;;;;18.80;64.20;;;;;;5001835;28;88542;-47
2022/09/08 07:53:35;;;;;;;;;;;18.80;64.30;;;;;;5002561;28;87054;-46
2022/09/08 07:56:24;;;;;;;;;;;18.80;64.30;;;;;;5002641;28;87374;-47
2022/09/08 07:58:59;;;;;;;;;;;18.70;64.30;;;;;;4998917;28;87345;-47
2022/09/08 08:01:36;;;;;;;;;;;18.80;64.20;;;;;;5004235;28;89008;-46
2022/09/08 08:04:02;;;;;;;;;;;18.80;64.30;;;;;;5002184;28;88435;-47
2022/09/08 08:06:33;;;;;;;;;;;18.80;64.30;;;;;;5002105;28;87998;-47
2022/09/08 08:08:59;;;;;;;;;;;18.80;64.20;;;;;;5001746;28;87099;-46
2022/09/08 08:11:43;;;;;;;;;;;18.80;64.20;;;;;;5002973;28;89155;-46
2022/09/08 08:14:11;;;;;;;;;;;18.80;64.20;;;;;;5005409;28;88445;-46
2022/09/08 08:16:42;;;;;;;;;;;18.80;64.20;;;;;;5005923;28;86955;-47
2022/09/08 08:19:40;;;;;;;;;;;18.80;64.10;;;;;;5006084;28;87322;-46
2022/09/08 08:22:05;;;;;;;;;;;18.90;64.20;;;;;;4992814;28;87121;-46
2022/09/08 08:25:06;;;;;;;;;;;18.90;64.10;;;;;;5008496;28;87117;-47
2022/09/08 08:27:35;;;;;;;;;;;18.90;64.10;;;;;;4982023;28;89061;-47
2022/09/08 08:30:17;;;;;;;;;;;18.90;64.10;;;;;;5001280;28;87268;-48
2022/09/08 08:32:56;;;;;;;;;;;18.90;64.00;;;;;;5005110;28;89024;-46
2022/09/08 08:35:26;;;;;;;;;;;19.00;64.10;;;;;;5004850;28;89497;-46
2022/09/08 08:37:52;;;;;;;;;;;18.90;64.00;;;;;;5005182;28;87082;-47
2022/09/08 08:40:28;;;;;;;;;;;18.90;64.10;;;;;;5005604;28;87741;-46
2022/09/08 08:42:56;;;;;;;;;;;18.90;64.10;;;;;;5004784;28;87455;-46
2022/09/08 08:45:34;;;;;;;;;;;19.00;64.10;;;;;;5005606;28;86431;-47
2022/09/08 08:48:17;;;;;;;;;;;19.00;64.10;;;;;;5008007;28;87096;-46
2022/09/08 08:50:46;;;;;;;;;;;19.00;64.10;;;;;;5005029;28;87148;-47
2022/09/08 08:53:29;;;;;;;;;;;19.00;64.00;;;;;;5004617;28;87974;-47
2022/09/08 08:56:01;;;;;;;;;;;18.90;64.30;;;;;;5004524;28;88130;-47
2022/09/08 08:58:35;;;;;;;;;;;19.00;64.20;;;;;;5005056;28;87117;-48
2022/09/08 09:01:04;;;;;;;;;;;19.00;64.00;;;;;;5005293;28;87456;-46
2022/09/08 09:03:48;;;;;;;;;;;19.00;64.00;;;;;;5004385;28;89821;-47
2022/09/08 09:06:14;;;;;;;;;;;19.00;64.10;;;;;;5004896;28;87121;-49
2022/09/08 09:09:05;;;;;;;;;;;19.00;64.00;;;;;;5004161;28;87654;-47
2022/09/08 09:11:45;;;;;;;;;;;19.00;64.00;;;;;;5008139;28;88399;-46
2022/09/08 09:14:37;;;;;;;;;;;19.10;64.00;;;;;;5005008;28;87009;-47
2022/09/08 09:17:19;;;;;;;;;;;19.00;64.00;;;;;;5001196;28;87640;-47
2022/09/08 09:19:48;;;;;;;;;;;19.00;64.00;;;;;;5004250;28;88369;-47
2022/09/08 09:22:32;;;;;;;;;;;19.10;63.90;;;;;;5003991;28;89687;-47
2022/09/08 09:24:58;;;;;;;;;;;19.10;63.90;;;;;;5003844;28;88110;-47
2022/09/08 09:27:23;;;;;;;;;;;19.10;64.00;;;;;;5004750;28;87139;-47
2022/09/08 09:29:56;;;;;;;;;;;19.10;64.00;;;;;;5004780;28;87177;-47
2022/09/08 09:32:21;;;;;;;;;;;19.10;64.00;;;;;;5007112;28;88147;-47
2022/09/08 09:34:58;;;;;;;;;;;19.10;64.00;;;;;;5004665;28;87215;-48
2022/09/08 09:37:24;;;;;;;;;;;19.10;64.00;;;;;;5004658;28;87446;-47
2022/09/08 09:39:59;;;;;;;;;;;19.10;63.90;;;;;;5004242;28;87083;-47
2022/09/08 09:42:26;;;;;;;;;;;19.10;64.00;;;;;;5004257;28;87913;-47
2022/09/08 09:45:04;;;;;;;;;;;19.20;64.10;;;;;;5003227;28;88921;-47
2022/09/08 09:48:08;;;;;;;;;;;19.10;63.90;;;;;;5004492;28;87046;-47
2022/09/08 09:50:36;;;;;;;;;;;19.20;64.00;;;;;;4982097;28;87391;-47
2022/09/08 09:53:24;;;;;;;;;;;19.20;64.00;;;;;;4981780;28;88149;-47
2022/09/08 09:56:07;;;;;;;;;;;19.20;64.00;;;;;;4995590;28;87205;-46
2022/09/08 09:58:41;;;;;;;;;;;19.20;64.10;;;;;;5003728;28;88055;-47
2022/09/08 10:01:22;;;;;;;;;;;19.20;64.10;;;;;;5004283;28;86995;-47
2022/09/08 10:04:01;;;;;;;;;;;19.30;64.10;;;;;;5004626;28;86576;-47
2022/09/08 10:06:32;;;;;;;;;;;19.30;64.60;;;;;;5003527;28;88044;-47
2022/09/08 10:09:04;;;;;;;;;;;19.30;64.10;;;;;;5003459;28;87315;-47
2022/09/08 10:11:42;;;;;;;;;;;19.30;64.10;;;;;;5003122;28;88981;-48
2022/09/08 10:14:26;;;;;;;;;;;19.30;64.00;;;;;;5003789;28;87962;-48
2022/09/08 10:17:10;;;;;;;;;;;19.30;64.10;;;;;;5003891;28;87192;-47
2022/09/08 10:19:51;;;;;;;;;;;19.30;64.10;;;;;;5006277;28;88746;-48
2022/09/08 10:22:25;;;;;;;;;;;19.30;64.10;;;;;;5003922;28;87139;-47
2022/09/08 10:24:53;;;;;;;;;;;19.40;64.10;;;;;;5003884;28;87327;-48
2022/09/08 10:27:38;;;;;;;;;;;19.40;64.10;;;;;;5003442;28;88111;-47
2022/09/08 10:30:06;;;;;;;;;;;19.40;64.10;;;;;;5004179;28;86308;-47
2022/09/08 10:32:52;;;;;;;;;;;19.40;64.10;;;;;;5003471;28;88011;-48
2022/09/08 10:35:26;;;;;;;;;;;19.40;64.20;;;;;;5002846;28;87284;-48
2022/09/08 10:37:54;;;;;;;;;;;19.40;64.20;;;;;;5003063;28;88088;-48
2022/09/08 10:40:26;;;;;;;;;;;19.40;64.30;;;;;;5003367;28;88312;-48
2022/09/08 10:43:04;;;;;;;;;;;19.50;64.30;;;;;;5005833;28;88252;-48
2022/09/08 10:45:49;;;;;;;;;;;19.50;64.20;;;;;;5003603;28;87397;-47
2022/09/08 10:48:26;;;;;;;;;;;19.50;64.90;;;;;;5002866;28;89191;-47
2022/09/08 10:50:53;;;;;;;;;;;19.50;64.30;;;;;;5003354;28;87054;-47
2022/09/08 10:53:25;;;;;;;;;;;19.50;64.20;;;;;;5003071;28;87831;-47
2022/09/08 10:56:08;;;;;;;;;;;19.50;64.20;;;;;;5003362;28;87122;-47
2022/09/08 10:58:34;;;;;;;;;;;19.60;64.20;;;;;;5003222;28;87134;-47
2022/09/08 11:00:59;;;;;;;;;;;19.60;64.30;;;;;;5003390;28;87354;-47
2022/09/08 11:03:35;;;;;;;;;;;19.60;64.20;;;;;;5002159;28;89078;-47
2022/09/08 11:06:08;;;;;;;;;;;19.60;64.20;;;;;;5006102;28;87006;-48
2022/09/08 11:08:33;;;;;;;;;;;19.60;64.10;;;;;;5002556;28;88003;-47
2022/09/08 11:11:21;;;;;;;;;;;19.70;64.20;;;;;;5002896;28;87102;-47
2022/09/08 11:13:48;;;;;;;;;;;19.70;64.20;;;;;;5003252;28;86919;-48
2022/09/08 11:16:32;;;;;;;;;;;19.70;64.20;;;;;;5002628;28;87997;-47
2022/09/08 11:19:16;;;;;;;;;;;19.70;64.20;;;;;;5003033;28;87105;-47
2022/09/08 11:21:47;;;;;;;;;;;19.70;64.20;;;;;;5003431;28;87594;-48
2022/09/08 11:24:26;;;;;;;;;;;19.70;64.20;;;;;;5002170;28;89399;-48
2022/09/08 11:26:54;;;;;;;;;;;19.80;64.30;;;;;;5003023;28;86997;-47
2022/09/08 11:29:24;;;;;;;;;;;19.80;64.30;;;;;;5004885;28;87901;-46
2022/09/08 11:32:01;;;;;;;;;;;19.80;64.20;;;;;;5002578;28;87044;-47
2022/09/08 11:34:26;;;;;;;;;;;19.80;64.20;;;;;;5002864;28;87233;-47
2022/09/08 11:37:24;;;;;;;;;;;19.80;64.10;;;;;;5002188;28;87979;-47
2022/09/08 11:39:56;;;;;;;;;;;19.90;64.30;;;;;;4990271;28;87126;-47
2022/09/08 11:42:40;;;;;;;;;;;19.90;64.20;;;;;;5002520;28;88903;-47
2022/09/08 11:45:16;;;;;;;;;;;19.90;64.20;;;;;;5002062;28;88523;-48
2022/09/08 11:47:48;;;;;;;;;;;19.90;64.30;;;;;;5002314;28;86372;-47
2022/09/08 11:50:27;;;;;;;;;;;20.00;64.30;;;;;;5005102;28;87074;-47
2022/09/08 11:53:11;;;;;;;;;;;20.00;64.30;;;;;;5002787;28;87018;-47
2022/09/08 11:55:42;;;;;;;;;;;20.00;64.20;;;;;;5001529;28;89209;-47
2022/09/08 11:58:08;;;;;;;;;;;20.00;64.20;;;;;;5002209;28;87988;-47
2022/09/08 12:00:57;;;;;;;;;;;20.00;64.20;;;;;;5002507;28;87092;-48
2022/09/08 12:03:38;;;;;;;;;;;20.00;64.20;;;;;;4998929;28;89120;-48
2022/09/08 12:06:16;;;;;;;;;;;20.10;64.50;;;;;;5001537;28;89686;-47
2022/09/08 12:08:41;;;;;;;;;;;20.10;64.30;;;;;;5001815;28;87126;-47
2022/09/08 12:11:10;;;;;;;;;;;20.10;64.30;;;;;;5002329;28;87464;-47
2022/09/08 12:13:38;;;;;;;;;;;20.10;64.20;;;;;;5005173;28;88856;-47
2022/09/08 12:16:06;;;;;;;;;;;20.20;64.30;;;;;;5002209;28;87448;-48
2022/09/08 12:18:41;;;;;;;;;;;20.10;64.20;;;;;;5001476;28;88503;-47
2022/09/08 12:21:06;;;;;;;;;;;20.20;64.30;;;;;;5001465;28;88104;-48
2022/09/08 12:23:36;;;;;;;;;;;20.20;64.20;;;;;;5002196;28;88384;-47
2022/09/08 12:26:01;;;;;;;;;;;20.20;64.40;;;;;;5001686;28;88494;-47
2022/09/08 12:28:27;;;;;;;;;;;20.30;64.30;;;;;;5001840;28;87211;-47
2022/09/08 12:31:11;;;;;;;;;;;20.30;64.30;;;;;;5002031;28;87392;-48
2022/09/08 12:33:54;;;;;;;;;;;20.30;64.30;;;;;;5001679;28;87169;-47
2022/09/08 12:36:39;;;;;;;;;;;20.30;64.30;;;;;;5004591;28;86959;-47
2022/09/08 12:39:08;;;;;;;;;;;20.30;64.20;;;;;;5002060;28;87128;-47
2022/09/08 12:41:52;;;;;;;;;;;20.30;64.30;;;;;;5001584;28;87079;-47
2022/09/08 12:44:20;;;;;;;;;;;20.40;64.30;;;;;;5002123;28;87384;-46
2022/09/08 12:46:52;;;;;;;;;;;20.40;64.40;;;;;;5001015;28;89117;-47
2022/09/08 12:49:17;;;;;;;;;;;20.40;64.40;;;;;;5001882;28;87140;-48
2022/09/08 12:51:43;;;;;;;;;;;20.40;64.40;;;;;;5001849;28;87376;-47
2022/09/08 12:54:12;;;;;;;;;;;20.50;64.30;;;;;;5001370;28;88072;-47
2022/09/08 12:56:37;;;;;;;;;;;20.50;64.50;;;;;;5001881;28;87675;-47
2022/09/08 12:59:08;;;;;;;;;;;20.50;64.40;;;;;;5007011;28;88938;-48
2022/09/08 13:01:41;;;;;;;;;;;20.50;64.30;;;;;;5005044;28;86863;-47
2022/09/08 13:04:22;;;;;;;;;;;20.50;64.20;;;;;;5005569;28;87422;-47
2022/09/08 13:06:56;;;;;;;;;;;20.60;64.20;;;;;;5004845;28;88922;-47
2022/09/08 13:09:24;;;;;;;;;;;20.60;64.30;;;;;;5004811;28;87092;-47
2022/09/08 13:11:52;;;;;;;;;;;20.60;64.40;;;;;;5004374;28;87930;-47
2022/09/08 13:14:23;;;;;;;;;;;20.60;64.90;;;;;;5004611;28;87991;-48
2022/09/08 13:17:03;;;;;;;;;;;20.60;64.30;;;;;;5005311;28;87148;-47
2022/09/08 13:19:38;;;;;;;;;;;20.60;64.30;;;;;;5004926;28;88775;-47
2022/09/08 13:22:04;;;;;;;;;;;20.70;64.30;;;;;;5007559;28;87380;-47
2022/09/08 13:24:48;;;;;;;;;;;20.70;64.40;;;;;;5004830;28;87919;-47
2022/09/08 13:27:19;;;;;;;;;;;20.70;64.40;;;;;;5003932;28;88522;-48
2022/09/08 13:29:45;;;;;;;;;;;20.70;64.60;;;;;;5005107;28;86912;-48
2022/09/08 13:32:10;;;;;;;;;;;20.70;64.50;;;;;;5004850;28;87054;-47
2022/09/08 13:34:38;;;;;;;;;;;20.70;64.50;;;;;;5004231;28;88061;-47
2022/09/08 13:37:12;;;;;;;;;;;20.80;64.60;;;;;;5003875;28;88050;-47
2022/09/08 13:39:40;;;;;;;;;;;20.80;64.60;;;;;;5004781;28;88295;-47
2022/09/08 13:42:06;;;;;;;;;;;20.80;64.50;;;;;;5003864;28;87850;-46
2022/09/08 13:44:34;;;;;;;;;;;20.80;64.40;;;;;;5007122;28;86857;-47
2022/09/08 13:47:18;;;;;;;;;;;20.80;64.40;;;;;;5003981;28;88085;-47
2022/09/08 13:49:47;;;;;;;;;;;20.80;64.40;;;;;;5004133;28;87192;-46
2022/09/08 13:52:31;;;;;;;;;;;20.80;64.50;;;;;;5004478;28;87489;-47
2022/09/08 13:55:06;;;;;;;;;;;20.80;64.40;;;;;;5004217;28;87214;-47
2022/09/08 13:57:50;;;;;;;;;;;20.90;64.50;;;;;;5004237;28;86973;-47
2022/09/08 14:00:17;;;;;;;;;;;20.90;64.50;;;;;;5004263;28;87154;-47
2022/09/08 14:02:46;;;;;;;;;;;20.90;64.50;;;;;;5002830;28;90403;-47
2022/09/08 14:05:18;;;;;;;;;;;20.90;64.60;;;;;;5006726;28;87278;-48
2022/09/08 14:07:47;;;;;;;;;;;21.00;64.60;;;;;;5002702;28;89475;-47
2022/09/08 14:10:15;;;;;;;;;;;21.00;64.50;;;;;;5003203;28;87059;-47
2022/09/08 14:13:13;;;;;;;;;;;21.00;64.40;;;;;;5003898;28;89062;-47
2022/09/08 14:15:49;;;;;;;;;;;21.00;64.50;;;;;;4990817;28;88006;-47
2022/09/08 14:18:14;;;;;;;;;;;21.10;64.50;;;;;;5004075;28;86890;-48
2022/09/08 14:20:52;;;;;;;;;;;21.10;64.50;;;;;;5004421;28;87426;-48
2022/09/08 14:23:24;;;;;;;;;;;21.10;64.40;;;;;;5003357;28;89459;-47
2022/09/08 14:25:50;;;;;;;;;;;21.10;64.60;;;;;;5003882;28;87019;-47
2022/09/08 14:28:22;;;;;;;;;;;21.20;64.70;;;;;;5005401;28;87926;-47
2022/09/08 14:30:47;;;;;;;;;;;21.20;64.60;;;;;;5003764;28;87098;-47
2022/09/08 14:33:31;;;;;;;;;;;21.30;64.50;;;;;;5003733;28;87267;-47
2022/09/08 14:35:59;;;;;;;;;;;21.30;64.70;;;;;;5003248;28;87919;-48
2022/09/08 14:38:48;;;;;;;;;;;21.30;64.60;;;;;;5003414;28;86957;-46
2022/09/08 14:41:26;;;;;;;;;;;21.30;64.60;;;;;;5003526;28;88967;-48
2022/09/08 14:44:03;;;;;;;;;;;21.30;64.40;;;;;;5002976;28;89751;-48